sensor_id;sensor_type;location;lat;lon;timestamp;P1;durP1;ratioP1;P2;durP2;ratioP2
69534;SDS011;56754;51.568;5.048;2024-03-22T00:00:44;29.67;;;15.70;;
69534;SDS011;56754;51.568;5.048;2024-03-22T00:03:09;30.77;;;16.57;;
69534;SDS011;56754;51.568;5.048;2024-03-22T00:05:35;32.27;;;16.33;;
69534;SDS011;56754;51.568;5.048;2024-03-22T00:08:00;29.27;;;15.67;;
69534;SDS011;56754;51.568;5.048;2024-03-22T00:10:25;27.88;;;15.32;;
69534;SDS011;56754;51.568;5.048;2024-03-22T00:12:50;30.33;;;16.10;;
69534;SDS011;56754;51.568;5.048;2024-03-22T00:15:16;29.07;;;14.20;;
69534;SDS011;56754;51.568;5.048;2024-03-22T00:17:42;28.27;;;14.90;;
69534;SDS011;56754;51.568;5.048;2024-03-22T00:20:08;28.98;;;15.45;;
69534;SDS011;56754;51.568;5.048;2024-03-22T00:22:33;34.30;;;16.77;;
69534;SDS011;56754;51.568;5.048;2024-03-22T00:24:59;26.53;;;14.57;;
69534;SDS011;56754;51.568;5.048;2024-03-22T00:27:26;30.57;;;16.80;;
69534;SDS011;56754;51.568;5.048;2024-03-22T00:29:51;30.20;;;16.05;;
69534;SDS011;56754;51.568;5.048;2024-03-22T00:32:17;34.47;;;17.20;;
69534;SDS011;56754;51.568;5.048;2024-03-22T00:34:42;31.37;;;17.03;;
69534;SDS011;56754;51.568;5.048;2024-03-22T00:37:07;26.60;;;14.00;;
69534;SDS011;56754;51.568;5.048;2024-03-22T00:39:33;28.77;;;15.00;;
69534;SDS011;56754;51.568;5.048;2024-03-22T00:41:58;27.47;;;14.73;;
69534;SDS011;56754;51.568;5.048;2024-03-22T00:44:23;31.50;;;15.70;;
69534;SDS011;56754;51.568;5.048;2024-03-22T00:46:48;27.13;;;14.40;;
69534;SDS011;56754;51.568;5.048;2024-03-22T00:49:14;28.20;;;15.17;;
69534;SDS011;56754;51.568;5.048;2024-03-22T00:51:39;29.63;;;15.17;;
69534;SDS011;56754;51.568;5.048;2024-03-22T00:56:48;26.55;;;14.38;;
69534;SDS011;56754;51.568;5.048;2024-03-22T00:59:14;31.43;;;17.13;;
69534;SDS011;56754;51.568;5.048;2024-03-22T01:01:39;30.33;;;16.05;;
69534;SDS011;56754;51.568;5.048;2024-03-22T01:04:04;32.13;;;16.70;;
69534;SDS011;56754;51.568;5.048;2024-03-22T01:06:29;25.43;;;14.33;;
69534;SDS011;56754;51.568;5.048;2024-03-22T01:08:55;29.10;;;15.17;;
69534;SDS011;56754;51.568;5.048;2024-03-22T01:11:20;26.10;;;14.50;;
69534;SDS011;56754;51.568;5.048;2024-03-22T01:13:45;25.93;;;15.13;;
69534;SDS011;56754;51.568;5.048;2024-03-22T01:16:13;28.73;;;15.27;;
69534;SDS011;56754;51.568;5.048;2024-03-22T01:18:38;28.58;;;16.10;;
69534;SDS011;56754;51.568;5.048;2024-03-22T01:24:06;25.98;;;14.85;;
69534;SDS011;56754;51.568;5.048;2024-03-22T01:26:31;29.37;;;15.63;;
69534;SDS011;56754;51.568;5.048;2024-03-22T01:28:57;29.87;;;16.03;;
69534;SDS011;56754;51.568;5.048;2024-03-22T01:31:22;30.53;;;15.63;;
69534;SDS011;56754;51.568;5.048;2024-03-22T01:33:47;28.17;;;15.87;;
69534;SDS011;56754;51.568;5.048;2024-03-22T01:36:12;27.47;;;14.97;;
69534;SDS011;56754;51.568;5.048;2024-03-22T01:38:40;30.33;;;16.53;;
69534;SDS011;56754;51.568;5.048;2024-03-22T01:41:05;29.52;;;16.20;;
69534;SDS011;56754;51.568;5.048;2024-03-22T01:43:32;28.63;;;16.30;;
69534;SDS011;56754;51.568;5.048;2024-03-22T01:45:57;28.50;;;15.27;;
69534;SDS011;56754;51.568;5.048;2024-03-22T01:48:22;27.93;;;15.73;;
69534;SDS011;56754;51.568;5.048;2024-03-22T01:50:48;26.70;;;14.40;;
69534;SDS011;56754;51.568;5.048;2024-03-22T01:53:13;29.37;;;15.00;;
69534;SDS011;56754;51.568;5.048;2024-03-22T01:55:39;27.57;;;14.73;;
69534;SDS011;56754;51.568;5.048;2024-03-22T01:58:04;26.98;;;15.02;;
69534;SDS011;56754;51.568;5.048;2024-03-22T02:00:30;27.80;;;15.77;;
69534;SDS011;56754;51.568;5.048;2024-03-22T02:02:55;27.57;;;15.60;;
69534;SDS011;56754;51.568;5.048;2024-03-22T02:05:21;29.63;;;15.83;;
69534;SDS011;56754;51.568;5.048;2024-03-22T02:07:46;29.90;;;15.63;;
69534;SDS011;56754;51.568;5.048;2024-03-22T02:10:12;28.27;;;16.00;;
69534;SDS011;56754;51.568;5.048;2024-03-22T02:12:38;27.65;;;14.93;;
69534;SDS011;56754;51.568;5.048;2024-03-22T02:15:04;28.65;;;15.05;;
69534;SDS011;56754;51.568;5.048;2024-03-22T02:17:29;27.13;;;14.90;;
69534;SDS011;56754;51.568;5.048;2024-03-22T02:19:54;26.13;;;15.23;;
69534;SDS011;56754;51.568;5.048;2024-03-22T02:22:20;26.10;;;14.13;;
69534;SDS011;56754;51.568;5.048;2024-03-22T02:24:45;26.60;;;15.50;;
69534;SDS011;56754;51.568;5.048;2024-03-22T02:27:10;27.07;;;14.20;;
69534;SDS011;56754;51.568;5.048;2024-03-22T02:29:35;26.15;;;14.77;;
69534;SDS011;56754;51.568;5.048;2024-03-22T02:32:01;28.93;;;16.00;;
69534;SDS011;56754;51.568;5.048;2024-03-22T02:36:56;25.20;;;14.77;;
69534;SDS011;56754;51.568;5.048;2024-03-22T02:39:21;27.27;;;14.70;;
69534;SDS011;56754;51.568;5.048;2024-03-22T02:41:46;28.37;;;14.60;;
69534;SDS011;56754;51.568;5.048;2024-03-22T02:44:12;26.50;;;15.15;;
69534;SDS011;56754;51.568;5.048;2024-03-22T02:46:38;29.87;;;15.97;;
69534;SDS011;56754;51.568;5.048;2024-03-22T02:49:03;26.93;;;15.60;;
69534;SDS011;56754;51.568;5.048;2024-03-22T02:51:28;23.90;;;14.20;;
69534;SDS011;56754;51.568;5.048;2024-03-22T02:53:54;25.50;;;14.13;;
69534;SDS011;56754;51.568;5.048;2024-03-22T02:56:19;27.87;;;13.83;;
69534;SDS011;56754;51.568;5.048;2024-03-22T03:01:28;25.75;;;14.57;;
69534;SDS011;56754;51.568;5.048;2024-03-22T03:03:54;26.87;;;14.73;;
69534;SDS011;56754;51.568;5.048;2024-03-22T03:06:19;25.67;;;14.10;;
69534;SDS011;56754;51.568;5.048;2024-03-22T03:08:44;29.73;;;15.13;;
69534;SDS011;56754;51.568;5.048;2024-03-22T03:11:09;26.40;;;14.47;;
69534;SDS011;56754;51.568;5.048;2024-03-22T03:13:35;23.97;;;14.10;;
69534;SDS011;56754;51.568;5.048;2024-03-22T03:16:01;26.48;;;14.88;;
69534;SDS011;56754;51.568;5.048;2024-03-22T03:21:11;25.65;;;13.85;;
69534;SDS011;56754;51.568;5.048;2024-03-22T03:23:36;26.07;;;15.20;;
69534;SDS011;56754;51.568;5.048;2024-03-22T03:26:01;27.67;;;15.00;;
69534;SDS011;56754;51.568;5.048;2024-03-22T03:28:27;23.58;;;14.15;;
69534;SDS011;56754;51.568;5.048;2024-03-22T03:30:52;25.53;;;14.50;;
69534;SDS011;56754;51.568;5.048;2024-03-22T03:33:17;24.07;;;13.67;;
69534;SDS011;56754;51.568;5.048;2024-03-22T03:35:46;26.50;;;14.03;;
69534;SDS011;56754;51.568;5.048;2024-03-22T03:38:12;23.60;;;13.45;;
69534;SDS011;56754;51.568;5.048;2024-03-22T03:40:37;27.40;;;13.07;;
69534;SDS011;56754;51.568;5.048;2024-03-22T03:43:02;22.67;;;13.17;;
69534;SDS011;56754;51.568;5.048;2024-03-22T03:45:28;24.70;;;13.20;;
69534;SDS011;56754;51.568;5.048;2024-03-22T03:47:53;25.42;;;13.75;;
69534;SDS011;56754;51.568;5.048;2024-03-22T03:53:03;24.13;;;12.57;;
69534;SDS011;56754;51.568;5.048;2024-03-22T03:58:12;23.25;;;12.50;;
69534;SDS011;56754;51.568;5.048;2024-03-22T04:00:38;22.17;;;11.90;;
69534;SDS011;56754;51.568;5.048;2024-03-22T04:03:03;21.30;;;11.37;;
69534;SDS011;56754;51.568;5.048;2024-03-22T04:05:28;24.02;;;11.80;;
69534;SDS011;56754;51.568;5.048;2024-03-22T04:07:54;22.20;;;11.83;;
69534;SDS011;56754;51.568;5.048;2024-03-22T04:10:19;21.60;;;11.77;;
69534;SDS011;56754;51.568;5.048;2024-03-22T04:12:44;20.60;;;11.70;;
69534;SDS011;56754;51.568;5.048;2024-03-22T04:15:10;21.80;;;11.50;;
69534;SDS011;56754;51.568;5.048;2024-03-22T04:17:35;21.57;;;11.13;;
69534;SDS011;56754;51.568;5.048;2024-03-22T04:20:01;21.02;;;11.25;;
69534;SDS011;56754;51.568;5.048;2024-03-22T04:22:27;20.13;;;10.77;;
69534;SDS011;56754;51.568;5.048;2024-03-22T04:24:52;21.35;;;11.60;;
69534;SDS011;56754;51.568;5.048;2024-03-22T04:27:17;21.77;;;11.17;;
69534;SDS011;56754;51.568;5.048;2024-03-22T04:29:43;21.00;;;10.57;;
69534;SDS011;56754;51.568;5.048;2024-03-22T04:32:12;20.45;;;11.65;;
69534;SDS011;56754;51.568;5.048;2024-03-22T04:34:41;19.93;;;10.73;;
69534;SDS011;56754;51.568;5.048;2024-03-22T04:37:07;20.20;;;10.87;;
69534;SDS011;56754;51.568;5.048;2024-03-22T04:39:32;21.25;;;11.90;;
69534;SDS011;56754;51.568;5.048;2024-03-22T04:41:57;21.23;;;11.47;;
69534;SDS011;56754;51.568;5.048;2024-03-22T04:44:22;22.67;;;11.47;;
69534;SDS011;56754;51.568;5.048;2024-03-22T04:46:48;24.50;;;12.53;;
69534;SDS011;56754;51.568;5.048;2024-03-22T04:49:13;23.03;;;12.13;;
69534;SDS011;56754;51.568;5.048;2024-03-22T04:51:38;24.23;;;12.27;;
69534;SDS011;56754;51.568;5.048;2024-03-22T04:54:04;25.97;;;13.37;;
69534;SDS011;56754;51.568;5.048;2024-03-22T04:56:29;25.13;;;12.77;;
69534;SDS011;56754;51.568;5.048;2024-03-22T04:58:54;21.48;;;11.52;;
69534;SDS011;56754;51.568;5.048;2024-03-22T05:01:20;24.90;;;12.73;;
69534;SDS011;56754;51.568;5.048;2024-03-22T05:03:45;23.77;;;12.43;;
69534;SDS011;56754;51.568;5.048;2024-03-22T05:06:10;21.50;;;11.90;;
69534;SDS011;56754;51.568;5.048;2024-03-22T05:08:35;21.33;;;11.23;;
69534;SDS011;56754;51.568;5.048;2024-03-22T05:11:01;20.93;;;10.73;;
69534;SDS011;56754;51.568;5.048;2024-03-22T05:13:26;22.88;;;12.50;;
69534;SDS011;56754;51.568;5.048;2024-03-22T05:15:51;22.07;;;11.60;;
69534;SDS011;56754;51.568;5.048;2024-03-22T05:18:17;21.63;;;11.37;;
69534;SDS011;56754;51.568;5.048;2024-03-22T05:20:42;20.33;;;11.40;;
69534;SDS011;56754;51.568;5.048;2024-03-22T05:23:07;20.63;;;11.63;;
69534;SDS011;56754;51.568;5.048;2024-03-22T05:25:33;20.90;;;11.17;;
69534;SDS011;56754;51.568;5.048;2024-03-22T05:27:58;20.90;;;11.30;;
69534;SDS011;56754;51.568;5.048;2024-03-22T05:30:23;21.80;;;11.77;;
69534;SDS011;56754;51.568;5.048;2024-03-22T05:32:48;21.20;;;11.20;;
69534;SDS011;56754;51.568;5.048;2024-03-22T05:35:14;26.60;;;12.33;;
69534;SDS011;56754;51.568;5.048;2024-03-22T05:37:39;21.17;;;11.60;;
69534;SDS011;56754;51.568;5.048;2024-03-22T05:40:04;20.70;;;11.23;;
69534;SDS011;56754;51.568;5.048;2024-03-22T05:42:30;21.73;;;10.85;;
69534;SDS011;56754;51.568;5.048;2024-03-22T05:44:55;21.13;;;11.57;;
69534;SDS011;56754;51.568;5.048;2024-03-22T05:47:21;24.83;;;12.23;;
69534;SDS011;56754;51.568;5.048;2024-03-22T05:49:46;22.83;;;10.77;;
69534;SDS011;56754;51.568;5.048;2024-03-22T05:52:12;23.00;;;11.70;;
69534;SDS011;56754;51.568;5.048;2024-03-22T05:54:37;20.40;;;10.57;;
69534;SDS011;56754;51.568;5.048;2024-03-22T05:57:02;22.27;;;11.27;;
69534;SDS011;56754;51.568;5.048;2024-03-22T05:59:28;20.23;;;11.27;;
69534;SDS011;56754;51.568;5.048;2024-03-22T06:01:53;22.20;;;11.60;;
69534;SDS011;56754;51.568;5.048;2024-03-22T06:04:18;20.07;;;10.57;;
69534;SDS011;56754;51.568;5.048;2024-03-22T06:09:28;19.55;;;10.95;;
69534;SDS011;56754;51.568;5.048;2024-03-22T06:11:53;21.20;;;11.65;;
69534;SDS011;56754;51.568;5.048;2024-03-22T06:14:19;20.27;;;10.67;;
69534;SDS011;56754;51.568;5.048;2024-03-22T06:16:44;19.03;;;10.03;;
69534;SDS011;56754;51.568;5.048;2024-03-22T06:19:09;20.30;;;11.00;;
69534;SDS011;56754;51.568;5.048;2024-03-22T06:21:36;22.60;;;10.80;;
69534;SDS011;56754;51.568;5.048;2024-03-22T06:24:01;20.30;;;10.85;;
69534;SDS011;56754;51.568;5.048;2024-03-22T06:26:26;19.27;;;10.63;;
69534;SDS011;56754;51.568;5.048;2024-03-22T06:28:51;19.73;;;10.83;;
69534;SDS011;56754;51.568;5.048;2024-03-22T06:31:17;19.87;;;10.93;;
69534;SDS011;56754;51.568;5.048;2024-03-22T06:33:42;19.57;;;10.27;;
69534;SDS011;56754;51.568;5.048;2024-03-22T06:36:07;18.50;;;10.40;;
69534;SDS011;56754;51.568;5.048;2024-03-22T06:38:33;18.17;;;10.43;;
69534;SDS011;56754;51.568;5.048;2024-03-22T06:40:58;18.97;;;10.73;;
69534;SDS011;56754;51.568;5.048;2024-03-22T06:43:23;19.73;;;11.13;;
69534;SDS011;56754;51.568;5.048;2024-03-22T06:45:49;18.90;;;10.53;;
69534;SDS011;56754;51.568;5.048;2024-03-22T06:48:14;18.60;;;10.03;;
69534;SDS011;56754;51.568;5.048;2024-03-22T06:50:39;20.23;;;10.73;;
69534;SDS011;56754;51.568;5.048;2024-03-22T06:53:04;21.00;;;10.60;;
69534;SDS011;56754;51.568;5.048;2024-03-22T06:55:30;20.70;;;11.23;;
69534;SDS011;56754;51.568;5.048;2024-03-22T06:57:55;21.67;;;11.20;;
69534;SDS011;56754;51.568;5.048;2024-03-22T07:00:20;20.37;;;11.03;;
69534;SDS011;56754;51.568;5.048;2024-03-22T07:05:30;21.42;;;10.80;;
69534;SDS011;56754;51.568;5.048;2024-03-22T07:07:55;18.97;;;10.27;;
69534;SDS011;56754;51.568;5.048;2024-03-22T07:10:20;22.03;;;11.90;;
69534;SDS011;56754;51.568;5.048;2024-03-22T07:12:45;20.93;;;11.33;;
69534;SDS011;56754;51.568;5.048;2024-03-22T07:15:11;20.70;;;11.67;;
69534;SDS011;56754;51.568;5.048;2024-03-22T07:17:36;24.87;;;12.27;;
69534;SDS011;56754;51.568;5.048;2024-03-22T07:20:01;20.37;;;12.27;;
69534;SDS011;56754;51.568;5.048;2024-03-22T07:22:26;20.77;;;12.00;;
69534;SDS011;56754;51.568;5.048;2024-03-22T07:24:52;22.17;;;12.37;;
69534;SDS011;56754;51.568;5.048;2024-03-22T07:27:18;21.60;;;12.07;;
69534;SDS011;56754;51.568;5.048;2024-03-22T07:29:44;21.83;;;11.90;;
69534;SDS011;56754;51.568;5.048;2024-03-22T07:32:10;22.80;;;11.75;;
69534;SDS011;56754;51.568;5.048;2024-03-22T07:34:36;25.73;;;12.90;;
69534;SDS011;56754;51.568;5.048;2024-03-22T07:37:01;22.53;;;12.83;;
69534;SDS011;56754;51.568;5.048;2024-03-22T07:39:26;21.77;;;12.17;;
69534;SDS011;56754;51.568;5.048;2024-03-22T07:41:52;23.50;;;13.23;;
69534;SDS011;56754;51.568;5.048;2024-03-22T07:44:17;21.97;;;13.07;;
69534;SDS011;56754;51.568;5.048;2024-03-22T07:46:45;23.33;;;13.23;;
69534;SDS011;56754;51.568;5.048;2024-03-22T07:51:55;23.40;;;13.35;;
69534;SDS011;56754;51.568;5.048;2024-03-22T07:54:20;24.10;;;13.00;;
69534;SDS011;56754;51.568;5.048;2024-03-22T07:56:45;22.90;;;12.97;;
69534;SDS011;56754;51.568;5.048;2024-03-22T07:59:11;19.73;;;11.53;;
69534;SDS011;56754;51.568;5.048;2024-03-22T08:01:36;21.80;;;11.90;;
69534;SDS011;56754;51.568;5.048;2024-03-22T08:04:01;19.17;;;10.93;;
69534;SDS011;56754;51.568;5.048;2024-03-22T08:06:26;18.70;;;10.67;;
69534;SDS011;56754;51.568;5.048;2024-03-22T08:08:53;19.10;;;10.65;;
69534;SDS011;56754;51.568;5.048;2024-03-22T08:11:18;19.77;;;10.50;;
69534;SDS011;56754;51.568;5.048;2024-03-22T08:13:44;20.27;;;11.10;;
69534;SDS011;56754;51.568;5.048;2024-03-22T08:16:09;19.67;;;9.97;;
69534;SDS011;56754;51.568;5.048;2024-03-22T08:18:34;17.43;;;9.93;;
69534;SDS011;56754;51.568;5.048;2024-03-22T08:20:59;18.73;;;10.47;;
69534;SDS011;56754;51.568;5.048;2024-03-22T08:23:25;20.07;;;10.70;;
69534;SDS011;56754;51.568;5.048;2024-03-22T08:25:50;20.52;;;11.85;;
69534;SDS011;56754;51.568;5.048;2024-03-22T08:28:15;21.17;;;12.33;;
69534;SDS011;56754;51.568;5.048;2024-03-22T08:30:41;22.00;;;11.93;;
69534;SDS011;56754;51.568;5.048;2024-03-22T08:33:06;19.57;;;11.90;;
69534;SDS011;56754;51.568;5.048;2024-03-22T08:35:32;19.40;;;11.37;;
69534;SDS011;56754;51.568;5.048;2024-03-22T08:37:57;19.73;;;10.90;;
69534;SDS011;56754;51.568;5.048;2024-03-22T08:40:22;18.43;;;10.40;;
69534;SDS011;56754;51.568;5.048;2024-03-22T08:42:47;17.20;;;9.38;;
69534;SDS011;56754;51.568;5.048;2024-03-22T08:47:58;17.85;;;9.30;;
69534;SDS011;56754;51.568;5.048;2024-03-22T08:50:24;17.70;;;9.00;;
69534;SDS011;56754;51.568;5.048;2024-03-22T08:52:51;17.50;;;9.30;;
69534;SDS011;56754;51.568;5.048;2024-03-22T08:55:16;17.33;;;9.47;;
69534;SDS011;56754;51.568;5.048;2024-03-22T08:57:41;18.93;;;10.40;;
69534;SDS011;56754;51.568;5.048;2024-03-22T09:00:07;18.77;;;10.10;;
69534;SDS011;56754;51.568;5.048;2024-03-22T09:02:32;16.60;;;9.40;;
69534;SDS011;56754;51.568;5.048;2024-03-22T09:04:57;17.50;;;9.37;;
69534;SDS011;56754;51.568;5.048;2024-03-22T09:07:23;15.47;;;8.57;;
69534;SDS011;56754;51.568;5.048;2024-03-22T09:09:48;16.10;;;8.87;;
69534;SDS011;56754;51.568;5.048;2024-03-22T09:12:13;15.80;;;8.43;;
69534;SDS011;56754;51.568;5.048;2024-03-22T09:14:39;15.53;;;8.40;;
69534;SDS011;56754;51.568;5.048;2024-03-22T09:17:04;15.23;;;8.23;;
69534;SDS011;56754;51.568;5.048;2024-03-22T09:19:29;14.50;;;7.90;;
69534;SDS011;56754;51.568;5.048;2024-03-22T09:21:54;15.03;;;7.80;;
69534;SDS011;56754;51.568;5.048;2024-03-22T09:24:20;16.33;;;8.67;;
69534;SDS011;56754;51.568;5.048;2024-03-22T09:26:45;14.13;;;8.13;;
69534;SDS011;56754;51.568;5.048;2024-03-22T09:29:10;15.13;;;8.00;;
69534;SDS011;56754;51.568;5.048;2024-03-22T09:31:38;15.73;;;7.90;;
69534;SDS011;56754;51.568;5.048;2024-03-22T09:36:47;15.60;;;8.55;;
69534;SDS011;56754;51.568;5.048;2024-03-22T09:39:12;15.13;;;7.40;;
69534;SDS011;56754;51.568;5.048;2024-03-22T09:44:41;18.20;;;7.37;;
69534;SDS011;56754;51.568;5.048;2024-03-22T09:47:12;14.88;;;7.38;;
69534;SDS011;56754;51.568;5.048;2024-03-22T09:49:41;14.38;;;7.38;;
69534;SDS011;56754;51.568;5.048;2024-03-22T09:52:07;14.23;;;7.07;;
69534;SDS011;56754;51.568;5.048;2024-03-22T09:54:34;14.73;;;7.00;;
69534;SDS011;56754;51.568;5.048;2024-03-22T09:56:59;14.40;;;6.87;;
69534;SDS011;56754;51.568;5.048;2024-03-22T09:59:26;14.03;;;6.77;;
69534;SDS011;56754;51.568;5.048;2024-03-22T10:01:51;15.45;;;7.05;;
69534;SDS011;56754;51.568;5.048;2024-03-22T10:04:18;13.52;;;6.80;;
69534;SDS011;56754;51.568;5.048;2024-03-22T10:06:43;13.23;;;6.13;;
69534;SDS011;56754;51.568;5.048;2024-03-22T10:09:09;14.50;;;6.90;;
69534;SDS011;56754;51.568;5.048;2024-03-22T10:11:34;13.70;;;6.50;;
69534;SDS011;56754;51.568;5.048;2024-03-22T10:14:00;13.98;;;7.00;;
69534;SDS011;56754;51.568;5.048;2024-03-22T10:16:25;14.80;;;6.53;;
69534;SDS011;56754;51.568;5.048;2024-03-22T10:18:50;14.17;;;6.73;;
69534;SDS011;56754;51.568;5.048;2024-03-22T10:21:18;15.93;;;6.90;;
69534;SDS011;56754;51.568;5.048;2024-03-22T10:26:32;14.90;;;6.35;;
69534;SDS011;56754;51.568;5.048;2024-03-22T10:28:58;12.27;;;6.10;;
69534;SDS011;56754;51.568;5.048;2024-03-22T10:31:24;16.00;;;6.40;;
69534;SDS011;56754;51.568;5.048;2024-03-22T10:33:50;14.93;;;6.28;;
69534;SDS011;56754;51.568;5.048;2024-03-22T10:36:19;13.25;;;5.78;;
69534;SDS011;56754;51.568;5.048;2024-03-22T10:38:44;11.23;;;6.27;;
69534;SDS011;56754;51.568;5.048;2024-03-22T10:41:10;13.65;;;6.10;;
69534;SDS011;56754;51.568;5.048;2024-03-22T10:43:36;15.07;;;6.73;;
69534;SDS011;56754;51.568;5.048;2024-03-22T10:46:02;13.97;;;6.20;;
69534;SDS011;56754;51.568;5.048;2024-03-22T10:48:28;14.30;;;6.45;;
69534;SDS011;56754;51.568;5.048;2024-03-22T10:50:55;14.73;;;6.63;;
69534;SDS011;56754;51.568;5.048;2024-03-22T10:56:09;14.43;;;6.70;;
69534;SDS011;56754;51.568;5.048;2024-03-22T10:58:37;14.07;;;6.10;;
69534;SDS011;56754;51.568;5.048;2024-03-22T11:01:04;16.70;;;6.95;;
69534;SDS011;56754;51.568;5.048;2024-03-22T11:03:29;14.10;;;6.20;;
69534;SDS011;56754;51.568;5.048;2024-03-22T11:05:55;13.57;;;6.67;;
69534;SDS011;56754;51.568;5.048;2024-03-22T11:10:51;17.13;;;6.40;;
69534;SDS011;56754;51.568;5.048;2024-03-22T11:13:17;11.55;;;6.07;;
69534;SDS011;56754;51.568;5.048;2024-03-22T11:15:43;12.43;;;5.90;;
69534;SDS011;56754;51.568;5.048;2024-03-22T11:18:08;12.65;;;5.53;;
69534;SDS011;56754;51.568;5.048;2024-03-22T11:23:18;12.07;;;5.65;;
69534;SDS011;56754;51.568;5.048;2024-03-22T11:25:44;13.27;;;5.60;;
69534;SDS011;56754;51.568;5.048;2024-03-22T11:28:10;12.65;;;5.72;;
69534;SDS011;56754;51.568;5.048;2024-03-22T11:33:19;11.23;;;5.05;;
69534;SDS011;56754;51.568;5.048;2024-03-22T11:35:44;9.70;;;5.20;;
69534;SDS011;56754;51.568;5.048;2024-03-22T11:38:11;11.30;;;5.27;;
69534;SDS011;56754;51.568;5.048;2024-03-22T11:40:36;10.88;;;5.40;;
69534;SDS011;56754;51.568;5.048;2024-03-22T11:45:46;11.13;;;5.15;;
69534;SDS011;56754;51.568;5.048;2024-03-22T11:48:11;10.67;;;5.03;;
69534;SDS011;56754;51.568;5.048;2024-03-22T11:50:39;10.98;;;4.93;;
69534;SDS011;56754;51.568;5.048;2024-03-22T11:53:04;11.07;;;4.73;;
69534;SDS011;56754;51.568;5.048;2024-03-22T11:55:30;10.18;;;4.82;;
69534;SDS011;56754;51.568;5.048;2024-03-22T11:57:57;8.90;;;4.70;;
69534;SDS011;56754;51.568;5.048;2024-03-22T12:00:25;10.40;;;5.20;;
69534;SDS011;56754;51.568;5.048;2024-03-22T12:02:52;9.77;;;4.40;;
69534;SDS011;56754;51.568;5.048;2024-03-22T12:05:17;10.57;;;4.70;;
69534;SDS011;56754;51.568;5.048;2024-03-22T12:07:45;9.15;;;4.72;;
69534;SDS011;56754;51.568;5.048;2024-03-22T12:10:11;8.33;;;4.63;;
69534;SDS011;56754;51.568;5.048;2024-03-22T12:12:37;8.93;;;4.20;;
69534;SDS011;56754;51.568;5.048;2024-03-22T12:15:03;8.63;;;4.95;;
69534;SDS011;56754;51.568;5.048;2024-03-22T12:17:29;9.68;;;4.80;;
69534;SDS011;56754;51.568;5.048;2024-03-22T12:19:56;7.90;;;4.77;;
69534;SDS011;56754;51.568;5.048;2024-03-22T12:22:24;7.82;;;4.15;;
69534;SDS011;56754;51.568;5.048;2024-03-22T12:24:49;8.63;;;4.10;;
69534;SDS011;56754;51.568;5.048;2024-03-22T12:27:14;8.53;;;4.33;;
69534;SDS011;56754;51.568;5.048;2024-03-22T12:29:40;9.33;;;4.90;;
69534;SDS011;56754;51.568;5.048;2024-03-22T12:32:05;8.20;;;4.30;;
69534;SDS011;56754;51.568;5.048;2024-03-22T12:34:30;7.30;;;4.18;;
69534;SDS011;56754;51.568;5.048;2024-03-22T12:36:56;9.63;;;4.67;;
69534;SDS011;56754;51.568;5.048;2024-03-22T12:39:21;8.10;;;4.30;;
69534;SDS011;56754;51.568;5.048;2024-03-22T12:41:48;7.77;;;3.87;;
69534;SDS011;56754;51.568;5.048;2024-03-22T12:44:14;8.05;;;4.38;;
69534;SDS011;56754;51.568;5.048;2024-03-22T12:46:39;7.03;;;4.20;;
69534;SDS011;56754;51.568;5.048;2024-03-22T12:49:04;8.15;;;4.47;;
69534;SDS011;56754;51.568;5.048;2024-03-22T12:51:30;7.90;;;4.17;;
69534;SDS011;56754;51.568;5.048;2024-03-22T12:53:55;6.90;;;4.00;;
69534;SDS011;56754;51.568;5.048;2024-03-22T12:56:20;7.30;;;4.53;;
69534;SDS011;56754;51.568;5.048;2024-03-22T12:58:46;6.93;;;4.10;;
69534;SDS011;56754;51.568;5.048;2024-03-22T13:01:12;7.63;;;4.20;;
69534;SDS011;56754;51.568;5.048;2024-03-22T13:03:37;7.30;;;3.80;;
69534;SDS011;56754;51.568;5.048;2024-03-22T13:06:03;8.10;;;4.00;;
69534;SDS011;56754;51.568;5.048;2024-03-22T13:11:12;7.85;;;3.75;;
69534;SDS011;56754;51.568;5.048;2024-03-22T13:13:38;5.83;;;3.37;;
69534;SDS011;56754;51.568;5.048;2024-03-22T13:16:03;7.00;;;4.10;;
69534;SDS011;56754;51.568;5.048;2024-03-22T13:18:29;8.93;;;4.20;;
69534;SDS011;56754;51.568;5.048;2024-03-22T13:20:54;6.00;;;3.45;;
69534;SDS011;56754;51.568;5.048;2024-03-22T13:23:20;6.47;;;3.60;;
69534;SDS011;56754;51.568;5.048;2024-03-22T13:25:48;7.80;;;3.70;;
69534;SDS011;56754;51.568;5.048;2024-03-22T13:28:13;5.65;;;3.15;;
69534;SDS011;56754;51.568;5.048;2024-03-22T13:30:38;6.77;;;3.90;;
69534;SDS011;56754;51.568;5.048;2024-03-22T13:33:04;6.70;;;3.30;;
69534;SDS011;56754;51.568;5.048;2024-03-22T13:35:29;6.93;;;3.10;;
69534;SDS011;56754;51.568;5.048;2024-03-22T13:37:55;5.97;;;2.87;;
69534;SDS011;56754;51.568;5.048;2024-03-22T13:40:20;5.40;;;2.90;;
69534;SDS011;56754;51.568;5.048;2024-03-22T13:45:30;6.23;;;3.00;;
69534;SDS011;56754;51.568;5.048;2024-03-22T13:47:55;6.27;;;2.60;;
69534;SDS011;56754;51.568;5.048;2024-03-22T13:50:21;5.40;;;2.80;;
69534;SDS011;56754;51.568;5.048;2024-03-22T13:52:46;6.57;;;2.90;;
69534;SDS011;56754;51.568;5.048;2024-03-22T13:55:11;5.83;;;2.50;;
69534;SDS011;56754;51.568;5.048;2024-03-22T13:57:36;5.53;;;2.50;;
69534;SDS011;56754;51.568;5.048;2024-03-22T14:00:02;5.35;;;2.45;;
69534;SDS011;56754;51.568;5.048;2024-03-22T14:02:28;5.13;;;2.57;;
69534;SDS011;56754;51.568;5.048;2024-03-22T14:04:53;4.77;;;2.30;;
69534;SDS011;56754;51.568;5.048;2024-03-22T14:07:18;4.60;;;2.50;;
69534;SDS011;56754;51.568;5.048;2024-03-22T14:09:43;5.10;;;2.30;;
69534;SDS011;56754;51.568;5.048;2024-03-22T14:12:09;4.77;;;1.93;;
69534;SDS011;56754;51.568;5.048;2024-03-22T14:14:34;4.20;;;1.90;;
69534;SDS011;56754;51.568;5.048;2024-03-22T14:16:59;5.10;;;2.27;;
69534;SDS011;56754;51.568;5.048;2024-03-22T14:19:25;4.47;;;1.90;;
69534;SDS011;56754;51.568;5.048;2024-03-22T14:21:50;4.37;;;1.70;;
69534;SDS011;56754;51.568;5.048;2024-03-22T14:26:59;4.20;;;1.50;;
69534;SDS011;56754;51.568;5.048;2024-03-22T14:29:24;3.63;;;1.50;;
69534;SDS011;56754;51.568;5.048;2024-03-22T14:31:50;4.27;;;1.90;;
69534;SDS011;56754;51.568;5.048;2024-03-22T14:34:15;4.22;;;1.80;;
69534;SDS011;56754;51.568;5.048;2024-03-22T14:36:40;3.93;;;1.30;;
69534;SDS011;56754;51.568;5.048;2024-03-22T14:39:05;3.13;;;1.27;;
69534;SDS011;56754;51.568;5.048;2024-03-22T14:41:34;3.17;;;1.20;;
69534;SDS011;56754;51.568;5.048;2024-03-22T14:43:59;4.43;;;1.30;;
69534;SDS011;56754;51.568;5.048;2024-03-22T14:46:24;4.03;;;1.23;;
69534;SDS011;56754;51.568;5.048;2024-03-22T14:48:50;3.60;;;1.43;;
69534;SDS011;56754;51.568;5.048;2024-03-22T14:51:15;3.30;;;1.20;;
69534;SDS011;56754;51.568;5.048;2024-03-22T14:53:40;3.73;;;1.23;;
69534;SDS011;56754;51.568;5.048;2024-03-22T14:56:06;1.93;;;0.77;;
69534;SDS011;56754;51.568;5.048;2024-03-22T14:58:31;2.67;;;1.00;;
69534;SDS011;56754;51.568;5.048;2024-03-22T15:00:57;3.20;;;0.90;;
69534;SDS011;56754;51.568;5.048;2024-03-22T15:03:25;2.38;;;0.90;;
69534;SDS011;56754;51.568;5.048;2024-03-22T15:05:50;2.90;;;1.00;;
69534;SDS011;56754;51.568;5.048;2024-03-22T15:08:17;4.72;;;1.50;;
69534;SDS011;56754;51.568;5.048;2024-03-22T15:10:42;3.83;;;1.60;;
69534;SDS011;56754;51.568;5.048;2024-03-22T15:13:08;5.60;;;1.90;;
69534;SDS011;56754;51.568;5.048;2024-03-22T15:15:33;4.17;;;1.70;;
69534;SDS011;56754;51.568;5.048;2024-03-22T15:18:06;6.25;;;2.30;;
69534;SDS011;56754;51.568;5.048;2024-03-22T15:20:31;5.95;;;2.22;;